Time;durP1;ratioP1;P1;durP2;ratioP2;P2;SDS_P1;SDS_P2;PMS_P1;PMS_P2;Temp;Humidity;BMP_temperature;BMP_pressure;BME280_temperature;BME280_humidity;BME280_pressure;Samples;Min_cycle;Max_cycle;Signal;HPM_P1;HPM_P2
2021/11/21 00:02:22;;;;;;;4.53;2.00;;;;;;;-145.69;100.00;72700.00;5092940;28;20710;-78
2021/11/21 00:04:50;;;;;;;6.17;2.10;;;;;;;-145.69;100.00;72694.03;5093270;28;20238;-79
2021/11/21 00:07:17;;;;;;;3.13;1.80;;;;;;;-145.69;100.00;72694.03;5093030;28;20710;-78
2021/11/21 00:09:44;;;;;;;3.20;1.40;;;;;;;-145.69;100.00;72676.09;5093328;28;20205;-79
2021/11/21 00:12:11;;;;;;;2.67;1.57;;;;;;;-145.69;100.00;72668.16;5092999;28;20202;-78
2021/11/21 00:14:38;;;;;;;3.23;1.30;;;;;;;-145.69;100.00;72676.09;5093069;28;20198;-78
2021/11/21 00:17:07;;;;;;;6.20;1.83;;;;;;;-145.69;100.00;72664.16;5092815;28;20610;-78
2021/11/21 00:19:34;;;;;;;5.00;1.40;;;;;;;-145.69;100.00;72648.25;5093085;28;20198;-78
2021/11/21 00:22:00;;;;;;;3.00;1.30;;;;;;;-145.69;100.00;72666.16;5092996;28;20600;-78
2021/11/21 00:24:27;;;;;;;1.73;1.30;;;;;;;-145.69;100.00;72664.16;5092720;28;20237;-78
2021/11/21 00:26:55;;;;;;;1.87;1.40;;;;;;;-145.69;100.00;72660.19;5095829;28;20702;-78
2021/11/21 00:29:21;;;;;;;1.33;1.20;;;;;;;-145.69;100.00;72658.19;5096713;28;20222;-78
2021/11/21 00:31:48;;;;;;;2.30;1.27;;;;;;;-145.69;100.00;72660.19;5096855;28;20206;-78
2021/11/21 00:34:14;;;;;;;2.67;1.50;;;;;;;-145.69;100.00;72656.22;5097119;28;20202;-79
2021/11/21 00:36:41;;;;;;;2.50;1.40;;;;;;;-145.69;100.00;72640.28;5096560;28;20645;-79
2021/11/21 00:39:07;;;;;;;5.10;1.00;;;;;;;-145.69;100.00;72628.34;5096720;28;20263;-79
2021/11/21 00:41:34;;;;;;;1.93;1.10;;;;;;;-145.69;100.00;72630.31;5096644;28;20206;-78
2021/11/21 00:44:02;;;;;;;4.37;1.30;;;;;;;-145.69;100.00;72620.38;5096440;28;20233;-79
2021/11/21 00:46:28;;;;;;;1.60;1.20;;;;;;;-145.69;100.00;72624.34;5096700;28;20205;-79
2021/11/21 00:48:55;;;;;;;2.33;1.40;;;;;;;-145.69;100.00;72608.44;5096497;28;20275;-78
2021/11/21 00:51:22;;;;;;;2.93;1.73;;;;;;;-145.69;100.00;72644.25;5096602;28;20202;-79
2021/11/21 00:53:52;;;;;;;2.17;1.40;;;;;;;-145.69;100.00;72652.22;5096463;28;20209;-78
2021/11/21 00:56:19;;;;;;;2.57;1.57;;;;;;;-145.69;100.00;72634.31;5096375;28;20293;-78
2021/11/21 00:58:46;;;;;;;3.20;1.50;;;;;;;-145.69;100.00;72622.38;5096095;28;20209;-78
2021/11/21 01:01:14;;;;;;;2.23;1.10;;;;;;;-145.69;100.00;72612.41;5096517;28;20252;-78
2021/11/21 01:03:41;;;;;;;3.47;1.33;;;;;;;-145.69;100.00;72630.31;5108350;27;20251;-78
2021/11/21 01:06:07;;;;;;;2.33;1.40;;;;;;;-145.69;100.00;72644.25;5112753;28;20323;-78
2021/11/21 01:08:34;;;;;;;2.10;1.20;;;;;;;-145.69;100.00;72632.31;5110427;28;20209;-78
2021/11/21 01:11:04;;;;;;;2.78;1.50;;;;;;;-145.69;100.00;72616.41;5095949;28;20447;-78
2021/11/21 01:13:31;;;;;;;1.70;1.20;;;;;;;-145.69;100.00;72614.41;5096249;28;20300;-78
2021/11/21 01:15:58;;;;;;;2.47;1.57;;;;;;;-145.69;100.00;72620.38;5096156;28;20572;-78
2021/11/21 01:18:30;;;;;;;4.00;1.10;;;;;;;-145.69;100.00;72598.47;5096091;28;20263;-78
2021/11/21 01:20:57;;;;;;;2.20;1.30;;;;;;;-145.69;100.00;72602.47;5095813;28;20212;-78
2021/11/21 01:23:23;;;;;;;2.27;1.20;;;;;;;-145.69;100.00;72592.50;5095644;28;20198;-78
2021/11/21 01:25:50;;;;;;;2.23;1.67;;;;;;;-145.69;100.00;72562.66;5095540;28;20237;-78
2021/11/21 01:28:17;;;;;;;4.47;1.50;;;;;;;-145.69;100.00;72578.56;5095775;28;20225;-79
2021/11/21 01:30:44;;;;;;;2.63;1.50;;;;;;;-145.69;100.00;72600.47;5095894;28;20220;-78
2021/11/21 01:33:12;;;;;;;2.93;1.77;;;;;;;-145.69;100.00;72600.47;5095756;28;20201;-77
2021/11/21 01:35:40;;;;;;;6.93;1.83;;;;;;;-145.69;100.00;72598.47;5095552;28;20259;-78
2021/11/21 01:38:07;;;;;;;2.63;1.70;;;;;;;-145.69;100.00;72604.44;5113213;28;20250;-78
2021/11/21 01:40:34;;;;;;;3.27;1.93;;;;;;;-145.69;100.00;72628.34;5116036;28;20270;-78
2021/11/21 01:43:01;;;;;;;3.10;1.87;;;;;;;-145.69;100.00;72618.38;5115972;28;20258;-78
2021/11/21 01:45:28;;;;;;;5.40;2.03;;;;;;;-145.69;100.00;72628.34;5115895;28;20278;-78
2021/11/21 01:47:54;;;;;;;2.37;1.47;;;;;;;-145.69;100.00;72652.22;5115825;28;20247;-78
2021/11/21 01:50:26;;;;;;;3.17;1.60;;;;;;;-145.69;100.00;72670.13;5115895;28;20193;-78
2021/11/21 01:52:55;;;;;;;5.43;2.10;;;;;;;-145.69;100.00;72646.25;5115656;28;20659;-78
2021/11/21 01:55:22;;;;;;;5.33;2.30;;;;;;;-145.69;100.00;72636.31;5115612;28;20198;-78
2021/11/21 01:57:48;;;;;;;7.60;2.50;;;;;;;-145.69;100.00;72596.50;5115476;28;20205;-79
2021/11/21 02:00:16;;;;;;;6.87;2.80;;;;;;;-145.69;100.00;72604.44;5115445;28;20672;-79
2021/11/21 02:02:43;;;;;;;3.83;1.93;;;;;;;-145.69;100.00;72608.44;5115561;28;20204;-78
2021/11/21 02:05:10;;;;;;;6.93;2.83;;;;;;;-145.69;100.00;72572.59;5115162;28;20584;-79
2021/11/21 02:07:37;;;;;;;9.27;2.87;;;;;;;-145.69;100.00;72550.72;5115253;28;20198;-79
2021/11/21 02:10:06;;;;;;;10.67;3.17;;;;;;;-145.69;100.00;72532.78;5115383;28;20194;-80
2021/11/21 02:12:33;;;;;;;7.37;2.50;;;;;;;-145.69;100.00;72528.81;5115268;28;20201;-79
2021/11/21 02:14:59;;;;;;;3.57;1.77;;;;;;;-145.69;100.00;72562.66;5115252;28;20197;-78
2021/11/21 02:17:27;;;;;;;3.90;2.20;;;;;;;-145.69;100.00;72578.56;5115122;28;20198;-78
2021/11/21 02:19:54;;;;;;;7.70;2.40;;;;;;;-145.69;100.00;72572.59;5114962;28;20193;-78
2021/11/21 02:22:22;;;;;;;5.13;2.20;;;;;;;-145.69;100.00;72564.66;5115157;28;20205;-78
2021/11/21 02:24:48;;;;;;;8.83;2.70;;;;;;;-145.69;100.00;72544.75;5115054;28;20233;-78
2021/11/21 02:27:19;;;;;;;8.40;2.40;;;;;;;-145.69;100.00;72548.72;5115290;28;20205;-78
2021/11/21 02:29:46;;;;;;;10.90;3.10;;;;;;;-145.69;100.00;72536.78;5115042;28;20200;-80
2021/11/21 02:32:12;;;;;;;10.87;3.27;;;;;;;-145.69;100.00;72528.81;5114806;28;20201;-80
2021/11/21 02:34:39;;;;;;;11.20;2.67;;;;;;;-145.69;100.00;72522.84;5114725;28;20205;-80
2021/11/21 02:37:08;;;;;;;6.73;3.07;;;;;;;-145.69;100.00;72512.91;5114783;28;20201;-80
2021/11/21 02:39:36;;;;;;;6.13;3.00;;;;;;;-145.69;100.00;72500.94;5114740;28;20208;-80
2021/11/21 02:42:03;;;;;;;11.30;2.57;;;;;;;-145.69;100.00;72512.91;5114754;28;20205;-79
2021/11/21 02:44:30;;;;;;;3.73;2.10;;;;;;;-145.69;100.00;72524.84;5114449;28;20630;-80
2021/11/21 02:46:57;;;;;;;6.33;2.70;;;;;;;-145.69;100.00;72504.94;5114488;28;20210;-80
2021/11/21 02:49:23;;;;;;;4.47;2.43;;;;;;;-145.69;100.00;72500.94;5114591;28;20618;-80
2021/11/21 02:51:50;;;;;;;3.13;1.70;;;;;;;-145.69;100.00;72526.81;5114551;28;20198;-81
2021/11/21 02:54:16;;;;;;;4.90;1.93;;;;;;;-145.69;100.00;72548.72;5114550;28;20201;-80
2021/11/21 02:56:44;;;;;;;10.17;2.30;;;;;;;-145.69;100.00;72518.88;5114369;28;20242;-80
2021/11/21 02:59:11;;;;;;;13.77;2.73;;;;;;;-145.69;100.00;72514.88;5114261;28;20201;-80
2021/11/21 03:01:38;;;;;;;9.27;3.07;;;;;;;-145.69;100.00;72496.97;5114121;28;20684;-79
2021/11/21 03:04:04;;;;;;;6.70;2.73;;;;;;;-145.69;100.00;72487.00;5114370;28;20605;-81
2021/11/21 03:06:35;;;;;;;7.87;2.40;;;;;;;-145.69;100.00;72485.03;5114392;28;20213;-80
2021/11/21 03:09:02;;;;;;;10.23;2.77;;;;;;;-145.69;100.00;72477.06;5101614;28;20201;-79
2021/11/21 03:11:31;;;;;;;7.27;2.40;;;;;;;-145.69;100.00;72469.09;5093760;28;20202;-79
2021/11/21 03:14:01;;;;;;;5.10;2.57;;;;;;;-145.69;100.00;72481.03;5093474;28;20198;-80
2021/11/21 03:16:28;;;;;;;5.10;2.17;;;;;;;-145.69;100.00;72483.03;5093622;28;20289;-80
2021/11/21 03:18:54;;;;;;;4.13;2.37;;;;;;;-145.69;100.00;72504.94;5093762;28;20247;-79
2021/11/21 03:21:21;;;;;;;5.67;2.23;;;;;;;-145.69;100.00;72510.91;5093655;28;20255;-78
2021/11/21 03:23:48;;;;;;;9.53;2.47;;;;;;;-145.69;100.00;72508.91;5093750;28;20293;-78
2021/11/21 03:26:15;;;;;;;4.50;2.20;;;;;;;-145.69;100.00;72524.84;5093613;28;20374;-78
2021/11/21 03:28:41;;;;;;;5.17;2.30;;;;;;;-145.69;100.00;72532.78;5093753;28;20209;-78
2021/11/21 03:31:09;;;;;;;7.27;2.70;;;;;;;-145.69;100.00;72504.94;5093870;28;20194;-78
2021/11/21 03:33:36;;;;;;;4.70;2.20;;;;;;;-145.69;100.00;72489.00;5093741;28;20202;-78
2021/11/21 03:36:02;;;;;;;7.28;2.92;;;;;;;-145.69;100.00;72500.94;5092206;28;20439;-78
2021/11/21 03:38:29;;;;;;;5.63;2.80;;;;;;;-145.69;100.00;72500.94;5093477;28;20259;-78
2021/11/21 03:40:56;;;;;;;6.10;2.50;;;;;;;-145.69;100.00;72500.94;5093404;28;20206;-78
2021/11/21 03:43:22;;;;;;;7.07;2.50;;;;;;;-145.69;100.00;72504.94;5093456;28;20289;-78
2021/11/21 03:45:48;;;;;;;8.00;2.33;;;;;;;-145.69;100.00;72508.91;5093463;28;20242;-78
2021/11/21 03:48:16;;;;;;;7.43;2.90;;;;;;;-145.69;100.00;72493.00;5093617;28;20198;-78
2021/11/21 03:50:43;;;;;;;6.80;2.50;;;;;;;-145.69;100.00;72493.00;5093360;28;20224;-79
2021/11/21 03:53:09;;;;;;;10.30;2.70;;;;;;;-145.69;100.00;72532.78;5093440;28;20542;-78
2021/11/21 03:55:36;;;;;;;5.33;2.57;;;;;;;-145.69;100.00;72522.84;5093274;28;20201;-78
2021/11/21 03:58:03;;;;;;;9.57;2.70;;;;;;;-145.69;100.00;72508.91;5093397;28;20202;-78
2021/11/21 04:00:30;;;;;;;5.70;2.60;;;;;;;-145.69;100.00;72508.91;5093849;28;20837;-78
2021/11/21 04:02:57;;;;;;;4.57;2.53;;;;;;;-145.69;100.00;72532.78;5097542;28;20198;-78
2021/11/21 04:05:25;;;;;;;5.87;2.50;;;;;;;-145.69;100.00;72504.94;5097659;28;20316;-78
2021/11/21 04:07:52;;;;;;;7.03;2.60;;;;;;;-145.69;100.00;72512.91;5097436;28;20194;-79
2021/11/21 04:10:19;;;;;;;6.53;2.97;;;;;;;-145.69;100.00;72550.72;5097300;28;20560;-78
2021/11/21 04:12:45;;;;;;;5.93;2.47;;;;;;;-145.69;100.00;72568.63;5097319;28;20197;-79
2021/11/21 04:15:12;;;;;;;5.33;2.07;;;;;;;-145.69;100.00;72580.56;5097347;28;20209;-79
2021/11/21 04:17:40;;;;;;;5.73;2.60;;;;;;;-145.69;100.00;72578.56;5096984;28;20209;-78
2021/11/21 04:20:09;;;;;;;8.07;2.73;;;;;;;-145.69;100.00;72574.59;5097013;28;20212;-79
2021/11/21 04:22:37;;;;;;;5.10;2.50;;;;;;;-145.69;100.00;72610.44;5096935;28;20549;-78
2021/11/21 04:25:04;;;;;;;5.73;2.50;;;;;;;-145.69;100.00;72624.34;5096549;28;20233;-78
2021/11/21 04:27:30;;;;;;;4.60;2.47;;;;;;;-145.69;100.00;72638.28;5097117;28;20201;-79
2021/11/21 04:29:57;;;;;;;7.17;2.40;;;;;;;-145.69;100.00;72632.31;5096843;28;20202;-78
2021/11/21 04:32:24;;;;;;;7.53;2.87;;;;;;;-145.69;100.00;72592.50;5096905;28;20205;-79
2021/11/21 04:34:51;;;;;;;6.87;2.83;;;;;;;-145.69;100.00;72588.53;5096802;28;20202;-79
2021/11/21 04:37:18;;;;;;;7.10;2.80;;;;;;;-145.69;100.00;72596.50;5096861;28;20285;-79
2021/11/21 04:39:47;;;;;;;5.77;2.50;;;;;;;-145.69;100.00;72580.56;5096821;28;20202;-78
2021/11/21 04:42:13;;;;;;;6.83;2.87;;;;;;;-145.69;100.00;72556.69;5096538;28;20587;-79
2021/11/21 04:44:40;;;;;;;9.10;3.10;;;;;;;-145.69;100.00;72552.69;5096646;28;20202;-79
2021/11/21 04:47:07;;;;;;;6.67;3.20;;;;;;;-145.69;100.00;72550.72;5096605;28;20272;-78
2021/11/21 04:49:33;;;;;;;8.47;2.97;;;;;;;-145.69;100.00;72552.69;5096353;28;20271;-78
2021/11/21 04:52:00;;;;;;;6.63;2.60;;;;;;;-145.69;100.00;72554.69;5096448;28;20675;-78
2021/11/21 04:54:26;;;;;;;6.37;2.53;;;;;;;-145.69;100.00;72560.66;5096567;28;20255;-78
2021/11/21 04:56:55;;;;;;;12.17;3.17;;;;;;;-145.69;100.00;72562.66;5096488;28;20198;-78
2021/11/21 04:59:22;;;;;;;5.43;2.87;;;;;;;-145.69;100.00;72562.66;5098872;28;20561;-79
2021/11/21 05:01:49;;;;;;;6.83;2.67;;;;;;;-145.69;100.00;72578.56;5096246;28;20193;-79
2021/11/21 05:04:15;;;;;;;6.37;2.77;;;;;;;-145.69;100.00;72580.56;5096158;28;20236;-79
2021/11/21 05:06:42;;;;;;;8.80;3.10;;;;;;;-145.69;100.00;72594.50;5095978;28;20229;-79
2021/11/21 05:09:09;;;;;;;8.13;2.70;;;;;;;-145.69;100.00;72604.44;5095838;28;20634;-78
2021/11/21 05:11:36;;;;;;;9.27;3.00;;;;;;;-145.69;100.00;72620.38;5095718;28;20210;-79
2021/11/21 05:14:05;;;;;;;8.60;3.33;;;;;;;-145.69;100.00;72646.25;5095383;28;20194;-78
2021/11/21 05:16:33;;;;;;;9.27;3.23;;;;;;;-145.69;100.00;72644.25;5096094;28;20289;-78
2021/11/21 05:19:00;;;;;;;14.33;3.30;;;;;;;-145.69;100.00;72656.22;5095797;28;20212;-79
2021/11/21 05:21:26;;;;;;;15.73;3.13;;;;;;;-145.69;100.00;72632.31;5095850;28;20649;-78
2021/11/21 05:23:52;;;;;;;5.70;2.70;;;;;;;-145.69;100.00;72638.28;5095802;28;20591;-78
2021/11/21 05:26:19;;;;;;;7.70;2.77;;;;;;;-145.69;100.00;72646.25;5095399;28;20237;-78
2021/11/21 05:28:45;;;;;;;6.07;2.83;;;;;;;-145.69;100.00;72656.22;5095708;28;20232;-79
2021/11/21 05:31:13;;;;;;;12.03;2.80;;;;;;;-145.69;100.00;72650.22;5095754;28;20194;-79
2021/11/21 05:33:40;;;;;;;7.70;2.90;;;;;;;-145.69;100.00;72646.25;5095368;28;20206;-79
2021/11/21 05:36:06;;;;;;;9.97;2.70;;;;;;;-145.69;100.00;72640.28;5095523;28;20667;-78
2021/11/21 05:38:33;;;;;;;6.27;2.90;;;;;;;-145.69;100.00;72648.25;5095699;28;20205;-79
2021/11/21 05:40:59;;;;;;;7.70;2.40;;;;;;;-145.69;100.00;72654.22;5095490;28;20255;-78
2021/11/21 05:43:26;;;;;;;4.87;2.50;;;;;;;-145.69;100.00;72652.22;5095615;28;20206;-79
2021/11/21 05:45:52;;;;;;;6.80;3.23;;;;;;;-145.69;100.00;72656.22;5095271;28;20245;-79
2021/11/21 05:48:20;;;;;;;7.23;3.27;;;;;;;-145.69;100.00;72620.38;5095218;28;20220;-78
2021/11/21 05:50:47;;;;;;;9.57;3.10;;;;;;;-145.69;100.00;72644.25;5095821;28;20206;-79
2021/11/21 05:53:13;;;;;;;8.37;3.13;;;;;;;-145.69;100.00;72616.41;5095340;28;20717;-78
2021/11/21 05:55:39;;;;;;;12.10;3.50;;;;;;;-145.69;100.00;72632.31;5095287;28;20202;-78
2021/11/21 05:58:06;;;;;;;11.50;4.00;;;;;;;-145.69;100.00;72640.28;5094867;28;20244;-78
2021/11/21 06:00:32;;;;;;;9.23;3.37;;;;;;;-145.69;100.00;72604.44;5095145;28;20202;-78
2021/11/21 06:03:00;;;;;;;11.93;3.30;;;;;;;-145.69;100.00;72596.50;5094900;28;20271;-78
2021/11/21 06:05:28;;;;;;;14.30;3.40;;;;;;;-145.69;100.00;72564.66;5095411;28;20294;-78
2021/11/21 06:07:55;;;;;;;8.07;3.57;;;;;;;-145.69;100.00;72568.63;5095234;28;20202;-78
2021/11/21 06:10:22;;;;;;;8.63;3.77;;;;;;;-145.69;100.00;72564.66;5094945;28;20205;-79
2021/11/21 06:12:48;;;;;;;10.30;3.83;;;;;;;-145.69;100.00;72538.78;5094855;28;20553;-79
2021/11/21 06:15:15;;;;;;;8.87;3.20;;;;;;;-145.69;100.00;72544.75;5094830;28;20198;-78
2021/11/21 06:17:43;;;;;;;9.17;3.30;;;;;;;-145.69;100.00;72538.78;5095106;28;20301;-79
2021/11/21 06:20:11;;;;;;;8.93;3.73;;;;;;;-145.69;100.00;72496.97;5094566;28;20239;-79
2021/11/21 06:22:39;;;;;;;8.10;3.37;;;;;;;-145.69;100.00;72532.78;5094526;28;20565;-79
2021/11/21 06:25:06;;;;;;;10.47;3.60;;;;;;;-145.69;100.00;72546.72;5094099;28;20241;-78
2021/11/21 06:27:32;;;;;;;8.47;3.70;;;;;;;-145.69;100.00;72540.75;5094501;28;20229;-78
2021/11/21 06:29:59;;;;;;;9.57;3.03;;;;;;;-145.69;100.00;72532.78;5094463;28;20676;-78
2021/11/21 06:32:26;;;;;;;9.07;2.93;;;;;;;-145.69;100.00;72544.75;5094399;28;20656;-78
2021/11/21 06:34:52;;;;;;;11.37;3.67;;;;;;;-145.69;100.00;72524.84;5094582;28;20202;-78
2021/11/21 06:37:19;;;;;;;11.03;3.17;;;;;;;-145.69;100.00;72540.75;5094449;28;20206;-78
2021/11/21 06:39:47;;;;;;;6.33;2.77;;;;;;;-145.69;100.00;72562.66;5094265;28;20228;-78
2021/11/21 06:42:14;;;;;;;8.77;3.03;;;;;;;-145.69;100.00;72556.69;5094172;28;20206;-78
2021/11/21 06:44:41;;;;;;;8.07;2.97;;;;;;;-145.69;100.00;72536.78;5094055;28;20629;-78
2021/11/21 06:47:08;;;;;;;8.63;3.30;;;;;;;-145.69;100.00;72504.94;5094169;28;20264;-77
2021/11/21 06:49:35;;;;;;;10.43;2.77;;;;;;;-145.69;100.00;72518.88;5094190;28;20198;-78
2021/11/21 06:52:02;;;;;;;7.17;3.43;;;;;;;-145.69;100.00;72524.84;5094268;28;20656;-78
2021/11/21 06:54:28;;;;;;;5.33;2.23;;;;;;;-145.69;100.00;72522.84;5096166;28;20198;-78
2021/11/21 06:56:56;;;;;;;9.07;3.10;;;;;;;-145.69;100.00;72524.84;5093828;28;20202;-78
2021/11/21 06:59:22;;;;;;;6.60;2.70;;;;;;;-145.69;100.00;72512.91;5093807;28;20202;-78
2021/11/21 07:01:49;;;;;;;11.83;3.50;;;;;;;-145.69;100.00;72528.81;5093948;28;20202;-78
2021/11/21 07:04:15;;;;;;;6.47;2.73;;;;;;;-145.69;100.00;72510.91;5093897;28;20198;-78
2021/11/21 07:06:46;;;;;;;16.10;3.13;;;;;;;-145.69;100.00;72514.88;5093838;28;20230;-78
2021/11/21 07:09:14;;;;;;;8.43;3.23;;;;;;;-145.69;100.00;72502.94;5093672;28;20204;-78
2021/11/21 07:11:42;;;;;;;8.20;2.50;;;;;;;-145.69;100.00;72471.09;5093529;28;20196;-78
2021/11/21 07:14:11;;;;;;;10.07;3.33;;;;;;;-145.69;100.00;72461.13;5093696;28;20198;-78
2021/11/21 07:16:38;;;;;;;6.57;3.40;;;;;;;-145.69;100.00;72491.00;5093750;28;20202;-78
2021/11/21 07:19:06;;;;;;;13.00;2.67;;;;;;;-145.69;100.00;72500.94;5093570;28;20217;-78
2021/11/21 07:21:33;;;;;;;6.10;2.27;;;;;;;-145.69;100.00;72500.94;5093463;28;20198;-78
2021/11/21 07:23:59;;;;;;;6.83;2.70;;;;;;;-145.69;100.00;72487.00;5093161;28;20276;-79
2021/11/21 07:26:26;;;;;;;9.63;2.77;;;;;;;-145.69;100.00;72489.00;5093575;28;20226;-79
2021/11/21 07:28:53;;;;;;;5.20;2.87;;;;;;;-145.69;100.00;72491.00;5093502;28;20255;-78
2021/11/21 07:31:21;;;;;;;6.20;2.40;;;;;;;-145.69;100.00;72508.91;5093511;28;20289;-78
2021/11/21 07:33:47;;;;;;;3.40;2.13;;;;;;;-145.69;100.00;72536.78;5093467;28;20247;-78
2021/11/21 07:36:14;;;;;;;5.87;2.60;;;;;;;-145.69;100.00;72530.81;5092498;28;20202;-78
2021/11/21 07:38:41;;;;;;;6.88;2.72;;;;;;;-145.69;100.00;72522.84;5093035;28;20436;-78
2021/11/21 07:41:08;;;;;;;8.87;2.70;;;;;;;-145.69;100.00;72481.03;5093274;28;20649;-78
2021/11/21 07:43:37;;;;;;;6.87;2.60;;;;;;;-145.69;100.00;72477.06;5093514;28;20338;-78
2021/11/21 07:46:04;;;;;;;7.27;2.73;;;;;;;-145.69;100.00;72457.16;5093083;28;20217;-78
2021/11/21 07:48:32;;;;;;;8.27;2.67;;;;;;;-145.69;100.00;72451.19;5093241;28;20202;-79
2021/11/21 07:50:58;;;;;;;7.67;3.10;;;;;;;-145.69;100.00;72437.25;5092912;28;20707;-79
2021/11/21 07:53:29;;;;;;;8.93;3.30;;;;;;;-145.69;100.00;72441.25;5093021;28;20263;-79
2021/11/21 07:55:56;;;;;;;9.07;2.80;;;;;;;-145.69;100.00;72445.22;5093489;28;20232;-78
2021/11/21 07:58:23;;;;;;;10.10;3.30;;;;;;;-145.69;100.00;72465.13;5093102;28;20568;-79
2021/11/21 08:00:51;;;;;;;5.67;2.77;;;;;;;-145.69;100.00;72477.06;5092828;28;20205;-78
2021/11/21 08:03:17;;;;;;;4.60;2.30;;;;;;;-145.69;100.00;72465.13;5093088;28;20267;-79
2021/11/21 08:05:45;;;;;;;4.77;2.30;;;;;;;-145.69;100.00;72493.00;5092954;28;20202;-78
2021/11/21 08:08:11;;;;;;;7.10;2.57;;;;;;;-145.69;100.00;72491.00;5093070;28;20205;-78
2021/11/21 08:10:38;;;;;;;6.07;2.83;;;;;;;-145.69;100.00;72477.06;5093215;28;20202;-78
2021/11/21 08:13:06;;;;;;;15.50;5.23;;;;;;;-145.69;100.00;72493.00;5092984;28;20288;-78
2021/11/21 08:15:33;;;;;;;8.97;4.20;;;;;;;-145.69;100.00;72512.91;5093101;28;20228;-78
2021/11/21 08:18:02;;;;;;;14.20;6.33;;;;;;;-145.69;100.00;72530.81;5092921;28;20213;-78
2021/11/21 08:20:28;;;;;;;16.27;5.73;;;;;;;-145.69;100.00;72552.69;5093153;28;20198;-78
2021/11/21 08:22:56;;;;;;;13.73;6.30;;;;;;;-145.69;100.00;72560.66;5092989;28;20244;-78
2021/11/21 08:25:23;;;;;;;15.97;7.47;;;;;;;-145.69;100.00;72580.56;5092828;28;20230;-78
2021/11/21 08:27:50;;;;;;;14.03;6.63;;;;;;;-145.69;100.00;72584.56;5092942;28;20230;-78
2021/11/21 08:30:17;;;;;;;16.00;6.97;;;;;;;-145.69;100.00;72592.50;5092923;28;20198;-79
2021/11/21 08:32:44;;;;;;;13.73;6.80;;;;;;;-145.69;100.00;72600.47;5092896;28;20202;-78
2021/11/21 08:35:10;;;;;;;16.13;7.20;;;;;;;-145.69;100.00;72610.44;5093008;28;20201;-78
2021/11/21 08:37:37;;;;;;;15.67;7.30;;;;;;;-145.69;100.00;72604.44;5092944;28;20221;-78
2021/11/21 08:40:06;;;;;;;18.00;7.30;;;;;;;-145.69;100.00;72580.56;5092792;28;20209;-78
2021/11/21 08:42:34;;;;;;;17.80;8.17;;;;;;;-145.69;100.00;72576.59;5092616;28;20198;-77
2021/11/21 08:45:03;;;;;;;17.17;8.70;;;;;;;-145.69;100.00;72588.53;5092593;28;20206;-77
2021/11/21 08:47:32;;;;;;;16.70;7.80;;;;;;;-145.69;100.00;72580.56;5094424;28;20230;-78
2021/11/21 08:49:59;;;;;;;17.07;7.97;;;;;;;-145.69;100.00;72590.53;5096149;28;20660;-78
2021/11/21 08:52:29;;;;;;;18.73;7.70;;;;;;;-145.69;100.00;72580.56;5096229;28;20205;-78
2021/11/21 08:54:59;;;;;;;17.17;8.07;;;;;;;-145.69;100.00;72580.56;5095624;28;20198;-78
2021/11/21 08:57:27;;;;;;;18.63;8.77;;;;;;;-145.69;100.00;72574.59;5096251;28;20203;-77
2021/11/21 08:59:53;;;;;;;15.30;7.63;;;;;;;-145.69;100.00;72572.59;5098321;28;20205;-77
2021/11/21 09:02:20;;;;;;;15.93;7.30;;;;;;;-145.69;100.00;72560.66;5096241;28;20213;-76
2021/11/21 09:04:46;;;;;;;17.50;8.40;;;;;;;-145.69;100.00;72548.72;5096214;28;20205;-77
2021/11/21 09:07:13;;;;;;;19.20;7.80;;;;;;;-145.69;100.00;72538.78;5095924;28;20320;-77
2021/11/21 09:09:39;;;;;;;15.53;7.33;;;;;;;-145.69;100.00;72526.81;5095787;28;20641;-77
2021/11/21 09:12:07;;;;;;;16.37;7.13;;;;;;;-145.69;100.00;72504.94;5095740;28;20201;-77
2021/11/21 09:14:35;;;;;;;15.90;7.27;;;;;;;-145.69;100.00;72493.00;5095645;28;20560;-77
2021/11/21 09:17:04;;;;;;;19.27;7.27;;;;;;;-145.69;100.00;72481.03;5095900;28;20201;-76
2021/11/21 09:19:31;;;;;;;13.87;7.10;;;;;;;-145.69;100.00;72473.09;5095775;28;20217;-77
2021/11/21 09:21:57;;;;;;;17.07;7.73;;;;;;;-145.69;100.00;72465.13;5095861;28;20296;-77
2021/11/21 09:24:25;;;;;;;13.90;6.67;;;;;;;-145.69;100.00;72453.19;5095364;28;20811;-78
2021/11/21 09:26:51;;;;;;;20.57;8.80;;;;;;;-145.69;100.00;72429.28;5095601;28;20228;-79
2021/11/21 09:29:18;;;;;;;22.93;10.80;;;;;;;-145.69;100.00;72413.38;5095594;28;20668;-78
2021/11/21 09:31:46;;;;;;;15.97;7.10;;;;;;;-145.69;100.00;72369.59;5095536;28;20198;-79
2021/11/21 09:34:13;;;;;;;13.77;7.10;;;;;;;-145.69;100.00;72357.66;5095565;28;20198;-78
2021/11/21 09:36:40;;;;;;;16.20;7.77;;;;;;;-145.69;100.00;72347.69;5095449;28;20209;-78
2021/11/21 09:39:07;;;;;;;12.40;5.50;;;;;;;-145.69;100.00;72307.88;5095854;28;20568;-78
2021/11/21 09:41:33;;;;;;;10.03;5.43;;;;;;;-145.69;100.00;72274.06;5095469;28;20194;-78
2021/11/21 09:44:00;;;;;;;13.30;4.80;;;;;;;-145.69;100.00;72236.22;5095449;28;20232;-78
2021/11/21 09:46:26;;;;;;;9.10;4.93;;;;;;;-145.69;100.00;72218.31;5095282;28;20224;-77
2021/11/21 09:48:55;;;;;;;11.13;4.37;;;;;;;-145.69;100.00;72198.41;5095264;28;20198;-77
2021/11/21 09:51:22;;;;;;;8.57;4.47;;;;;;;-145.69;100.00;72192.44;5095358;28;20205;-77
2021/11/21 09:53:48;;;;;;;7.03;4.17;;;;;;;-145.69;100.00;72186.47;5095266;28;20651;-77
2021/11/21 09:56:15;;;;;;;9.60;3.87;;;;;;;-145.69;100.00;72174.53;5094999;28;20202;-77
2021/11/21 09:58:42;;;;;;;8.43;4.10;;;;;;;-145.69;100.00;72178.53;5094419;28;20251;-77
2021/11/21 10:01:32;;;;;;;6.23;4.17;;;;;;;-145.69;100.00;72174.53;5095317;28;20202;-77
2021/11/21 10:04:00;;;;;;;6.07;4.03;;;;;;;-145.69;100.00;72178.53;5095145;28;20202;-76
2021/11/21 10:06:31;;;;;;;10.07;4.40;;;;;;;-145.69;100.00;72172.53;5094790;28;20202;-77
2021/11/21 10:08:58;;;;;;;8.30;4.07;;;;;;;-145.69;100.00;72160.59;5095051;28;20209;-77
2021/11/21 10:11:24;;;;;;;8.93;4.50;;;;;;;-145.69;100.00;72162.59;5094617;28;20663;-77
2021/11/21 10:13:54;;;;;;;16.10;7.10;;;;;;;-145.69;100.00;72164.59;5094765;28;20198;-77
2021/11/21 10:16:28;;;;;;;60.17;22.30;;;;;;;-145.69;100.00;72162.59;5094767;28;20198;-77
2021/11/21 10:18:56;;;;;;;31.23;16.13;;;;;;;-145.69;100.00;72162.59;5094665;28;20206;-77
2021/11/21 10:21:26;;;;;;;14.13;8.33;;;;;;;-145.69;100.00;72170.56;5095069;28;20198;-78
2021/11/21 10:24:11;;;;;;;14.97;9.07;;;;;;;-145.69;100.00;72154.63;5094463;28;20201;-77
2021/11/21 10:26:38;;;;;;;16.43;8.63;;;;;;;-145.69;100.00;72130.75;5094912;28;20198;-77
2021/11/21 10:29:26;;;;;;;14.87;7.93;;;;;;;-145.69;100.00;72122.78;5094815;28;20219;-77
2021/11/21 10:31:53;;;;;;;11.57;6.27;;;;;;;-145.69;100.00;72110.84;5094735;28;20645;-77
2021/11/21 10:34:19;;;;;;;12.70;6.50;;;;;;;-145.69;100.00;72110.84;5094421;28;20665;-77
2021/11/21 10:36:47;;;;;;;12.93;6.47;;;;;;;-145.69;100.00;72112.84;5094697;28;20247;-77
2021/11/21 10:39:16;;;;;;;14.50;7.20;;;;;;;-145.69;100.00;72108.84;5094497;28;20247;-77
2021/11/21 10:41:45;;;;;;;9.20;5.73;;;;;;;-145.69;100.00;72106.88;5094499;28;20247;-77
2021/11/21 10:44:14;;;;;;;11.93;5.87;;;;;;;-145.69;100.00;72098.91;5094349;28;20725;-77
2021/11/21 10:46:43;;;;;;;12.00;6.90;;;;;;;-145.69;100.00;72098.91;5094171;28;20202;-77
2021/11/21 10:49:16;;;;;;;11.60;6.00;;;;;;;-145.69;100.00;72088.97;5094461;28;20206;-77
2021/11/21 10:51:43;;;;;;;10.03;6.27;;;;;;;-145.69;100.00;72079.00;5094050;28;20198;-76
2021/11/21 10:54:25;;;;;;;9.90;5.77;;;;;;;-145.69;100.00;72073.03;5093965;28;20198;-76
2021/11/21 10:56:54;;;;;;;10.87;5.70;;;;;;;-145.69;100.00;72075.03;5094040;28;20195;-77
2021/11/21 10:59:33;;;;;;;10.87;6.27;;;;;;;-145.69;100.00;72063.09;5094113;28;20201;-77
2021/11/21 11:02:08;;;;;;;11.87;6.30;;;;;;;-145.69;100.00;72043.19;5094196;28;20202;-77
2021/11/21 11:04:34;;;;;;;11.17;5.70;;;;;;;-145.69;100.00;72027.25;5094038;28;20267;-77
2021/11/21 11:07:11;;;;;;;12.27;5.60;;;;;;;-145.69;100.00;71999.41;5093890;28;20222;-77
2021/11/21 11:09:39;;;;;;;11.70;5.40;;;;;;;-145.69;100.00;71987.47;5096304;28;20284;-77